Time;durP1;ratioP1;P1;durP2;ratioP2;P2;SDS_P1;SDS_P2;PMS_P1;PMS_P2;Temp;Humidity;BMP_temperature;BMP_pressure;BME280_temperature;BME280_humidity;BME280_pressure;Samples;Min_cycle;Max_cycle;Signal;HPM_P1;HPM_P2
2022/08/20 00:00:35;;;;;;;16.60;5.03;;;18.00;82.50;;;;;;4988775;28;20022;-76
2022/08/20 00:03:17;;;;;;;18.83;5.32;;;18.00;82.60;;;;;;4993091;28;20053;-74
2022/08/20 00:05:53;;;;;;;19.60;5.55;;;17.90;82.60;;;;;;4985912;28;20034;-73
2022/08/20 00:08:20;;;;;;;17.05;5.35;;;17.90;82.70;;;;;;4992355;28;20030;-73
2022/08/20 00:10:48;;;;;;;14.15;5.95;;;17.90;82.80;;;;;;5020904;28;20417;-74
2022/08/20 00:13:19;;;;;;;19.63;6.10;;;17.90;82.90;;;;;;4984746;28;20356;-73
2022/08/20 00:15:45;;;;;;;22.23;6.10;;;17.80;82.90;;;;;;4988954;28;20043;-74
2022/08/20 00:18:11;;;;;;;21.00;6.15;;;17.80;83.00;;;;;;4992861;28;20045;-74
2022/08/20 00:20:41;;;;;;;17.98;6.07;;;17.80;83.10;;;;;;4996193;28;20035;-73
2022/08/20 00:23:08;;;;;;;19.38;6.05;;;17.70;83.20;;;;;;4995380;28;20327;-75
2022/08/20 00:25:34;;;;;;;17.55;5.68;;;17.70;83.50;;;;;;4987183;28;20458;-73
2022/08/20 00:28:02;;;;;;;16.95;5.63;;;17.70;83.30;;;;;;4997689;28;20034;-73
2022/08/20 00:30:28;;;;;;;18.67;5.75;;;17.70;83.30;;;;;;4991251;28;20027;-74
2022/08/20 00:33:07;;;;;;;17.42;5.50;;;17.70;83.20;;;;;;4996665;28;20033;-74
2022/08/20 00:35:38;;;;;;;24.23;6.60;;;17.60;83.30;;;;;;4980287;28;20408;-74
2022/08/20 00:38:05;;;;;;;20.98;6.28;;;17.70;83.40;;;;;;4988478;28;20038;-73
2022/08/20 00:40:35;;;;;;;19.08;5.53;;;17.60;83.40;;;;;;4992688;28;20562;-76
2022/08/20 00:43:04;;;;;;;18.45;5.63;;;17.60;83.40;;;;;;4995101;28;20042;-74
2022/08/20 00:45:33;;;;;;;16.35;5.43;;;17.60;83.40;;;;;;4997007;28;20107;-76
2022/08/20 00:48:00;;;;;;;23.83;6.35;;;17.60;83.50;;;;;;4989112;28;20117;-73
2022/08/20 00:50:32;;;;;;;17.52;6.22;;;17.60;83.70;;;;;;4989633;28;20217;-74
2022/08/20 00:53:01;;;;;;;18.25;6.05;;;17.60;83.90;;;;;;4993862;28;20038;-73
2022/08/20 00:55:27;;;;;;;19.23;6.15;;;17.60;84.00;;;;;;4991374;28;20030;-74
2022/08/20 00:57:57;;;;;;;22.45;6.50;;;17.50;83.90;;;;;;4999162;28;20026;-74
2022/08/20 01:00:41;;;;;;;22.20;6.22;;;17.50;83.90;;;;;;4995262;28;20520;-74
2022/08/20 01:03:10;;;;;;;18.40;6.03;;;17.50;83.80;;;;;;4985436;28;20066;-74
2022/08/20 01:05:41;;;;;;;21.13;6.47;;;17.40;84.00;;;;;;4990666;28;20032;-73
2022/08/20 01:08:08;;;;;;;16.63;5.50;;;17.40;84.00;;;;;;4989482;28;20196;-73
2022/08/20 01:10:36;;;;;;;22.25;6.75;;;17.40;84.10;;;;;;4987139;28;20042;-74
2022/08/20 01:13:08;;;;;;;18.30;6.10;;;17.40;84.20;;;;;;4987730;28;20050;-74
2022/08/20 01:15:38;;;;;;;17.02;6.07;;;17.30;84.00;;;;;;4990490;28;20117;-74
2022/08/20 01:18:06;;;;;;;20.05;6.38;;;17.30;84.00;;;;;;4989824;28;20038;-74
2022/08/20 01:20:38;;;;;;;23.70;6.75;;;17.30;84.20;;;;;;4985770;28;20073;-74
2022/08/20 01:23:31;;;;;;;19.45;6.32;;;17.30;84.10;;;;;;4998495;28;20543;-73
2022/08/20 01:26:19;;;;;;;16.80;6.22;;;17.20;84.20;;;;;;4996187;28;20034;-74
2022/08/20 01:28:51;;;;;;;23.33;6.53;;;17.10;84.30;;;;;;5000690;28;20242;-73
2022/08/20 01:31:21;;;;;;;14.13;5.95;;;17.10;84.60;;;;;;4990553;28;20498;-73
2022/08/20 01:33:48;;;;;;;20.00;6.47;;;17.10;84.40;;;;;;4990512;28;20089;-73
2022/08/20 01:36:16;;;;;;;17.27;6.90;;;17.10;84.30;;;;;;4994803;28;20027;-75
2022/08/20 01:38:42;;;;;;;19.83;6.70;;;17.10;84.30;;;;;;4993590;28;20034;-75
2022/08/20 01:41:20;;;;;;;24.27;7.65;;;17.00;84.50;;;;;;4980870;28;20037;-73
2022/08/20 01:43:55;;;;;;;18.13;6.65;;;17.00;84.60;;;;;;4988117;28;20047;-74
2022/08/20 01:46:31;;;;;;;21.98;7.32;;;17.00;84.80;;;;;;4994674;28;20170;-74
2022/08/20 01:48:58;;;;;;;22.27;7.03;;;16.90;84.60;;;;;;4995669;28;20105;-73
2022/08/20 01:51:27;;;;;;;23.17;6.80;;;16.90;84.70;;;;;;4988098;28;20501;-73
2022/08/20 01:53:54;;;;;;;27.08;8.93;;;16.90;84.80;;;;;;4987894;28;20038;-74
2022/08/20 01:56:24;;;;;;;20.15;7.43;;;16.80;84.70;;;;;;4992676;28;20038;-74
2022/08/20 01:58:53;;;;;;;19.65;7.20;;;16.80;84.90;;;;;;4994261;28;20030;-74
2022/08/20 02:01:31;;;;;;;20.25;6.63;;;16.80;84.90;;;;;;4988546;28;20040;-74
2022/08/20 02:03:58;;;;;;;23.95;8.38;;;16.80;84.90;;;;;;4986812;28;20077;-73
2022/08/20 02:06:25;;;;;;;21.73;7.28;;;16.80;85.00;;;;;;4992655;28;20026;-73
2022/08/20 02:08:57;;;;;;;18.08;7.28;;;16.70;85.00;;;;;;5002662;28;20057;-74
2022/08/20 02:11:23;;;;;;;20.17;7.75;;;16.70;85.20;;;;;;4989893;28;20042;-73
2022/08/20 02:13:51;;;;;;;21.20;7.07;;;16.60;85.10;;;;;;4995099;28;20449;-73
2022/08/20 02:16:27;;;;;;;22.63;7.90;;;16.60;85.00;;;;;;4994926;28;20120;-73
2022/08/20 02:18:57;;;;;;;20.95;7.60;;;16.70;85.00;;;;;;4996735;28;20084;-74
2022/08/20 02:21:27;;;;;;;20.52;7.75;;;16.60;85.00;;;;;;4989289;28;20026;-73
2022/08/20 02:23:53;;;;;;;20.38;7.72;;;16.60;85.10;;;;;;4995766;28;20035;-74
2022/08/20 02:26:19;;;;;;;20.63;8.07;;;16.60;85.00;;;;;;4995958;28;20023;-74
2022/08/20 02:28:47;;;;;;;20.10;7.57;;;16.60;85.00;;;;;;4995012;28;20045;-73
2022/08/20 02:31:13;;;;;;;23.00;9.07;;;16.50;85.10;;;;;;4988749;28;20070;-74
2022/08/20 02:33:39;;;;;;;19.08;7.82;;;16.50;85.10;;;;;;4995053;28;20061;-74
2022/08/20 02:36:05;;;;;;;24.15;8.45;;;16.50;85.10;;;;;;4994545;28;20433;-73
2022/08/20 02:38:31;;;;;;;16.40;7.93;;;16.50;85.10;;;;;;4990424;28;20647;-75
2022/08/20 02:40:57;;;;;;;18.52;8.50;;;16.50;85.10;;;;;;4989054;28;20490;-73
2022/08/20 02:43:22;;;;;;;21.00;8.02;;;16.40;85.10;;;;;;4987642;28;20115;-76
2022/08/20 02:45:48;;;;;;;17.48;7.53;;;16.50;85.00;;;;;;4989337;28;20038;-74
2022/08/20 02:48:19;;;;;;;16.38;7.38;;;16.50;84.90;;;;;;4986847;28;20019;-73
2022/08/20 02:50:47;;;;;;;16.02;8.05;;;16.40;85.00;;;;;;4999299;28;20041;-73
2022/08/20 02:53:14;;;;;;;20.38;8.15;;;16.40;85.20;;;;;;5002164;28;20479;-74
2022/08/20 02:55:40;;;;;;;21.85;8.43;;;16.30;85.20;;;;;;4998550;28;20105;-73
2022/08/20 02:58:06;;;;;;;17.55;7.90;;;16.40;85.10;;;;;;4996813;28;20109;-74
2022/08/20 03:00:32;;;;;;;19.83;8.40;;;16.30;85.00;;;;;;4994183;28;20026;-73
2022/08/20 03:02:59;;;;;;;18.65;7.85;;;16.30;84.90;;;;;;4995701;28;20423;-74
2022/08/20 03:05:24;;;;;;;16.27;8.77;;;16.20;84.90;;;;;;5002127;28;20033;-73
2022/08/20 03:07:55;;;;;;;20.27;9.75;;;16.20;85.20;;;;;;4996900;28;20161;-73
2022/08/20 03:10:29;;;;;;;18.63;8.32;;;16.20;85.40;;;;;;4992479;28;20041;-73
2022/08/20 03:12:55;;;;;;;20.15;9.23;;;16.20;85.30;;;;;;4996801;28;20042;-73
2022/08/20 03:15:21;;;;;;;17.55;8.73;;;16.20;85.30;;;;;;4995882;28;20049;-73
2022/08/20 03:17:47;;;;;;;21.33;9.80;;;16.20;85.30;;;;;;4995335;28;20345;-73
2022/08/20 03:20:13;;;;;;;18.25;9.38;;;16.20;85.30;;;;;;4991458;28;20055;-73
2022/08/20 03:22:39;;;;;;;19.75;9.98;;;16.20;85.20;;;;;;4997342;28;20040;-74
2022/08/20 03:25:06;;;;;;;19.88;8.63;;;16.10;85.20;;;;;;4996211;28;20046;-74
2022/08/20 03:27:32;;;;;;;18.92;9.50;;;16.20;85.10;;;;;;4997828;28;20048;-74
2022/08/20 03:29:57;;;;;;;17.00;9.10;;;16.20;84.90;;;;;;4994573;28;20482;-73
2022/08/20 03:32:23;;;;;;;20.55;9.65;;;16.10;84.90;;;;;;4994363;28;20434;-73
2022/08/20 03:34:49;;;;;;;17.77;8.55;;;16.10;85.10;;;;;;5004837;28;20038;-73
2022/08/20 03:37:14;;;;;;;22.33;9.88;;;16.10;85.10;;;;;;4994818;28;20041;-73
2022/08/20 03:39:41;;;;;;;17.38;8.13;;;16.10;85.10;;;;;;4998540;28;20531;-73
2022/08/20 03:42:06;;;;;;;18.38;8.95;;;16.00;85.10;;;;;;4994853;28;20031;-73
2022/08/20 03:44:32;;;;;;;16.45;8.50;;;16.10;85.10;;;;;;5000081;28;20040;-74
2022/08/20 03:46:58;;;;;;;17.65;7.63;;;16.10;85.10;;;;;;5005765;28;20048;-73
2022/08/20 03:49:24;;;;;;;16.88;8.50;;;16.00;85.10;;;;;;4993536;28;20473;-73
2022/08/20 03:51:50;;;;;;;18.05;8.20;;;16.10;85.10;;;;;;4999182;28;20034;-73
2022/08/20 03:54:16;;;;;;;21.95;9.32;;;16.00;85.00;;;;;;4999330;28;20048;-73
2022/08/20 03:56:42;;;;;;;18.38;8.95;;;16.00;85.10;;;;;;4992442;28;20125;-73
2022/08/20 03:59:07;;;;;;;21.15;9.88;;;15.90;85.20;;;;;;4996884;28;20038;-73
2022/08/20 04:01:33;;;;;;;18.15;8.75;;;15.90;85.30;;;;;;4999315;28;20030;-74
2022/08/20 04:04:00;;;;;;;18.63;9.20;;;15.90;85.40;;;;;;4997507;28;20053;-72
2022/08/20 04:06:28;;;;;;;19.17;9.25;;;15.90;85.50;;;;;;5001887;28;20466;-74
2022/08/20 04:08:54;;;;;;;17.15;8.63;;;16.00;85.40;;;;;;4992705;28;20045;-73
2022/08/20 04:11:19;;;;;;;16.35;8.25;;;15.90;85.40;;;;;;4993956;28;20046;-73
2022/08/20 04:13:45;;;;;;;15.18;8.32;;;15.90;85.20;;;;;;4996964;28;20128;-73
2022/08/20 04:16:11;;;;;;;17.77;9.73;;;15.90;85.20;;;;;;4993664;28;20109;-73
2022/08/20 04:18:36;;;;;;;24.98;10.43;;;15.90;85.20;;;;;;5005663;28;20389;-73
2022/08/20 04:21:04;;;;;;;15.75;8.95;;;15.90;85.20;;;;;;4996524;28;20026;-74
2022/08/20 04:23:30;;;;;;;17.00;8.25;;;15.90;85.30;;;;;;4990825;28;20374;-74
2022/08/20 04:25:56;;;;;;;18.73;9.13;;;15.90;85.20;;;;;;4998525;28;20037;-74
2022/08/20 04:28:26;;;;;;;20.95;9.45;;;15.90;85.30;;;;;;4996503;28;20423;-73
2022/08/20 04:30:58;;;;;;;18.60;9.30;;;15.90;85.20;;;;;;4991481;28;20045;-73
2022/08/20 04:33:26;;;;;;;17.77;9.40;;;15.90;85.20;;;;;;4986575;28;20116;-74
2022/08/20 04:35:53;;;;;;;16.25;8.82;;;15.90;85.30;;;;;;4991596;28;20061;-74
2022/08/20 04:38:21;;;;;;;16.17;8.75;;;15.90;85.40;;;;;;4990381;28;20450;-75
2022/08/20 04:40:56;;;;;;;19.90;9.90;;;15.90;85.40;;;;;;4989508;28;20061;-73
2022/08/20 04:43:28;;;;;;;17.25;8.85;;;16.00;85.30;;;;;;5001666;28;20543;-73
2022/08/20 04:45:56;;;;;;;19.65;10.10;;;16.00;85.30;;;;;;4989731;28;20035;-75
2022/08/20 04:48:23;;;;;;;18.73;10.02;;;16.00;85.30;;;;;;4992609;28;20260;-73
2022/08/20 04:50:49;;;;;;;21.40;10.45;;;16.10;85.20;;;;;;4996062;28;20030;-74
2022/08/20 04:53:18;;;;;;;19.58;9.93;;;16.00;85.10;;;;;;4997053;28;20398;-73
2022/08/20 04:55:44;;;;;;;19.17;11.05;;;16.10;85.10;;;;;;4996407;28;20056;-73
2022/08/20 04:58:24;;;;;;;18.08;9.95;;;16.10;85.10;;;;;;4996620;28;20038;-73
2022/08/20 05:00:55;;;;;;;18.10;10.38;;;16.10;85.10;;;;;;4989408;28;20382;-73
2022/08/20 05:03:22;;;;;;;15.50;10.18;;;16.10;84.80;;;;;;4989169;28;20066;-73
2022/08/20 05:05:49;;;;;;;20.90;10.68;;;16.10;84.70;;;;;;4994756;28;20026;-73
2022/08/20 05:08:16;;;;;;;21.35;10.30;;;16.10;84.50;;;;;;4990582;28;20125;-73
2022/08/20 05:10:42;;;;;;;21.58;9.65;;;16.10;84.30;;;;;;5001747;28;20061;-73
2022/08/20 05:13:09;;;;;;;19.48;11.00;;;16.20;84.20;;;;;;4994375;28;20129;-73
2022/08/20 05:15:37;;;;;;;20.00;9.43;;;16.20;83.70;;;;;;4993865;28;20062;-73
2022/08/20 05:18:06;;;;;;;17.45;8.35;;;16.20;83.90;;;;;;4988040;28;20034;-73
2022/08/20 05:20:39;;;;;;;17.88;9.35;;;16.30;84.00;;;;;;4993069;28;20077;-75
2022/08/20 05:23:06;;;;;;;19.25;9.88;;;16.30;83.70;;;;;;4998447;28;20026;-73
2022/08/20 05:25:33;;;;;;;18.80;8.48;;;16.30;83.60;;;;;;4991300;28;20474;-73
2022/08/20 05:28:08;;;;;;;16.52;9.27;;;16.20;83.50;;;;;;5001254;28;20061;-73
2022/08/20 05:30:35;;;;;;;22.17;9.48;;;16.20;83.30;;;;;;4997019;28;20415;-73
2022/08/20 05:33:02;;;;;;;16.58;8.20;;;16.30;83.40;;;;;;5000682;28;20075;-74
2022/08/20 05:35:29;;;;;;;16.10;8.73;;;16.30;83.40;;;;;;4995163;28;20562;-73
2022/08/20 05:37:56;;;;;;;17.05;8.77;;;16.40;83.10;;;;;;4998446;28;20037;-73
2022/08/20 05:40:23;;;;;;;17.98;10.07;;;16.40;83.20;;;;;;4988471;28;20042;-73
2022/08/20 05:42:50;;;;;;;23.30;9.40;;;16.50;82.80;;;;;;4989815;28;20053;-73
2022/08/20 05:45:17;;;;;;;20.10;8.63;;;16.50;82.80;;;;;;4999608;28;20046;-73
2022/08/20 05:47:43;;;;;;;16.35;8.43;;;16.50;82.90;;;;;;4989063;28;20049;-74
2022/08/20 05:50:12;;;;;;;15.52;8.27;;;16.60;82.60;;;;;;4997832;28;20029;-74
2022/08/20 05:52:38;;;;;;;15.85;8.65;;;16.60;82.60;;;;;;4990833;28;20058;-73
2022/08/20 05:55:06;;;;;;;15.65;9.15;;;16.70;82.40;;;;;;4999836;28;20072;-73
2022/08/20 05:57:31;;;;;;;19.20;9.30;;;16.80;82.10;;;;;;4990151;28;20034;-74
2022/08/20 06:00:01;;;;;;;16.90;8.63;;;16.80;82.00;;;;;;4996397;28;20034;-74
2022/08/20 06:05:12;;;;;;;14.73;8.45;;;16.80;81.80;;;;;;4979233;28;20049;-74
2022/08/20 06:07:38;;;;;;;18.98;8.88;;;16.80;82.10;;;;;;4994018;28;20036;-74
2022/08/20 06:10:05;;;;;;;21.02;8.80;;;17.00;82.00;;;;;;4992299;28;20046;-74
2022/08/20 06:12:31;;;;;;;20.90;9.50;;;17.00;81.90;;;;;;4998702;28;20037;-73
2022/08/20 06:14:57;;;;;;;19.90;9.32;;;17.10;81.70;;;;;;4992004;28;20046;-75
2022/08/20 06:17:23;;;;;;;20.65;9.98;;;17.10;81.50;;;;;;4995348;28;20037;-74
2022/08/20 06:19:49;;;;;;;15.68;9.63;;;17.20;81.70;;;;;;4990351;28;20033;-73
2022/08/20 06:22:15;;;;;;;16.02;10.00;;;17.30;81.60;;;;;;4995002;28;20026;-73
2022/08/20 06:24:41;;;;;;;18.33;9.80;;;17.40;81.80;;;;;;4999575;28;20042;-74
2022/08/20 06:27:07;;;;;;;18.98;9.52;;;17.50;81.60;;;;;;4988343;28;20399;-74
2022/08/20 06:29:34;;;;;;;14.20;9.13;;;17.60;81.30;;;;;;4994238;28;20026;-76
2022/08/20 06:32:00;;;;;;;21.35;10.68;;;17.70;80.80;;;;;;4992474;28;20545;-73
2022/08/20 06:34:27;;;;;;;21.75;11.05;;;17.80;80.30;;;;;;4995671;28;20446;-76
2022/08/20 06:36:54;;;;;;;17.25;9.10;;;17.90;79.90;;;;;;5002766;28;20140;-73
2022/08/20 06:39:20;;;;;;;14.63;9.00;;;18.10;79.80;;;;;;4997464;28;20042;-73
2022/08/20 06:41:46;;;;;;;19.88;9.30;;;18.20;79.60;;;;;;5002079;28;20030;-74
2022/08/20 06:44:12;;;;;;;18.95;10.13;;;18.30;79.20;;;;;;5002201;28;20072;-73
2022/08/20 06:46:38;;;;;;;18.77;9.80;;;18.50;78.50;;;;;;5004095;28;20116;-73
2022/08/20 06:49:05;;;;;;;18.80;9.57;;;18.60;78.30;;;;;;4990883;28;20453;-74
2022/08/20 06:51:32;;;;;;;19.90;10.02;;;18.70;77.60;;;;;;4984616;28;20033;-74
2022/08/20 06:53:59;;;;;;;17.05;10.00;;;18.80;78.10;;;;;;5001378;28;20349;-73
2022/08/20 06:56:24;;;;;;;14.70;8.90;;;19.00;77.40;;;;;;4994906;28;20510;-74
2022/08/20 06:58:50;;;;;;;16.05;8.77;;;19.10;77.30;;;;;;4998679;28;20470;-74
2022/08/20 07:01:20;;;;;;;15.20;9.38;;;19.20;76.90;;;;;;5000661;28;20446;-73
2022/08/20 07:03:46;;;;;;;16.20;8.00;;;19.40;76.30;;;;;;5010655;28;20121;-73
2022/08/20 07:06:13;;;;;;;16.15;9.18;;;19.60;75.60;;;;;;4989884;28;20038;-73
2022/08/20 07:08:39;;;;;;;15.38;8.15;;;19.80;75.70;;;;;;5003407;28;20034;-74
2022/08/20 07:11:05;;;;;;;14.57;8.40;;;20.00;75.30;;;;;;4994592;28;20026;-73
2022/08/20 07:13:31;;;;;;;18.77;7.35;;;20.10;73.90;;;;;;4995019;28;20038;-75
2022/08/20 07:15:57;;;;;;;14.13;7.35;;;20.10;74.00;;;;;;4995982;28;20038;-75
2022/08/20 07:18:23;;;;;;;20.38;7.70;;;20.30;74.20;;;;;;4995270;28;20041;-73
2022/08/20 07:20:49;;;;;;;13.40;6.78;;;20.50;73.10;;;;;;4999318;28;20424;-73
2022/08/20 07:23:15;;;;;;;17.25;7.78;;;20.60;73.00;;;;;;4998944;28;20070;-73
2022/08/20 07:25:42;;;;;;;16.08;6.50;;;20.80;71.90;;;;;;5005931;28;20042;-73
2022/08/20 07:28:20;;;;;;;17.67;7.30;;;20.70;72.00;;;;;;5001501;28;20022;-73
2022/08/20 07:33:31;;;;;;;17.98;8.68;;;20.90;72.10;;;;;;5005964;28;20049;-75
2022/08/20 07:35:59;;;;;;;14.45;7.88;;;21.10;70.80;;;;;;4995673;28;20034;-73
2022/08/20 07:38:26;;;;;;;16.90;7.22;;;21.20;70.70;;;;;;4994046;28;20030;-73
2022/08/20 07:40:55;;;;;;;17.88;7.45;;;21.40;70.30;;;;;;5004619;28;20125;-73
2022/08/20 07:43:22;;;;;;;12.80;6.07;;;21.50;70.00;;;;;;4997319;28;20418;-73
2022/08/20 07:45:50;;;;;;;16.02;6.75;;;21.80;69.80;;;;;;5000745;28;20045;-74
2022/08/20 07:48:16;;;;;;;14.27;5.95;;;22.00;67.20;;;;;;4987782;28;20038;-73
2022/08/20 07:50:42;;;;;;;12.43;4.82;;;22.10;68.20;;;;;;4993222;28;20113;-73
2022/08/20 07:53:08;;;;;;;14.38;5.07;;;21.80;66.70;;;;;;4995273;28;20037;-73
2022/08/20 07:55:34;;;;;;;13.85;4.40;;;21.80;68.20;;;;;;5000992;28;20030;-75
2022/08/20 07:58:07;;;;;;;10.90;3.75;;;21.80;67.30;;;;;;5000507;28;20072;-73
2022/08/20 08:00:33;;;;;;;16.20;4.22;;;21.70;67.00;;;;;;4992430;28;20034;-76
2022/08/20 08:02:59;;;;;;;12.27;3.80;;;21.80;67.00;;;;;;4989861;28;20035;-73
2022/08/20 08:05:25;;;;;;;13.63;4.35;;;21.90;65.90;;;;;;4991958;28;20057;-73
2022/08/20 08:07:51;;;;;;;15.10;4.28;;;22.10;65.90;;;;;;4997654;28;20026;-73
2022/08/20 08:10:20;;;;;;;14.10;4.55;;;22.10;63.50;;;;;;4997295;28;20156;-74
2022/08/20 08:12:51;;;;;;;12.38;5.25;;;22.10;64.10;;;;;;4991358;28;20069;-73
2022/08/20 08:15:22;;;;;;;14.02;5.57;;;22.50;63.80;;;;;;5004452;28;20052;-74
2022/08/20 08:17:49;;;;;;;12.02;5.15;;;22.50;64.80;;;;;;4979968;28;20084;-73
2022/08/20 08:20:16;;;;;;;15.27;4.60;;;22.70;64.70;;;;;;4979893;28;20034;-73
2022/08/20 08:22:42;;;;;;;10.65;4.50;;;22.70;63.50;;;;;;4996017;28;20085;-72
2022/08/20 08:25:13;;;;;;;14.60;4.68;;;23.00;63.20;;;;;;5001392;28;20057;-73
2022/08/20 08:27:39;;;;;;;13.55;4.82;;;22.80;62.30;;;;;;4996584;28;20069;-73
2022/08/20 08:30:06;;;;;;;14.52;4.95;;;22.60;61.40;;;;;;4992530;28;20307;-73
2022/08/20 08:32:33;;;;;;;13.63;4.95;;;22.50;62.90;;;;;;5022137;28;20471;-74
2022/08/20 08:35:06;;;;;;;14.50;4.97;;;22.60;62.50;;;;;;4997304;28;21051;-73
2022/08/20 08:37:32;;;;;;;13.15;4.78;;;23.00;60.80;;;;;;4991322;28;20030;-72
2022/08/20 08:39:58;;;;;;;12.27;3.88;;;23.10;62.30;;;;;;4990183;28;20552;-73
2022/08/20 08:42:46;;;;;;;10.70;4.15;;;23.20;60.20;;;;;;4992801;28;20347;-73
2022/08/20 08:45:17;;;;;;;11.50;3.83;;;22.90;60.20;;;;;;4993174;28;20044;-72
2022/08/20 08:47:44;;;;;;;10.23;3.58;;;22.60;60.70;;;;;;5002610;28;20077;-73
2022/08/20 08:50:21;;;;;;;11.60;3.40;;;23.00;60.40;;;;;;4992303;28;20040;-73
2022/08/20 08:52:51;;;;;;;11.55;3.88;;;23.10;59.80;;;;;;4991141;28;20491;-73
2022/08/20 08:55:19;;;;;;;11.98;3.72;;;23.00;59.70;;;;;;4994330;28;20548;-73
2022/08/20 08:57:48;;;;;;;13.10;3.53;;;22.90;58.20;;;;;;4995094;28;20076;-73
2022/08/20 09:00:17;;;;;;;10.40;3.40;;;22.70;58.90;;;;;;4994372;28;20137;-73
2022/08/20 09:03:03;;;;;;;16.27;3.80;;;22.60;59.70;;;;;;4987003;28;20378;-73
2022/08/20 09:05:54;;;;;;;11.38;3.33;;;23.00;58.70;;;;;;4990831;28;20038;-73
2022/08/20 09:08:35;;;;;;;12.48;3.03;;;23.30;58.80;;;;;;4997536;28;20373;-73
2022/08/20 09:11:04;;;;;;;11.25;3.25;;;23.70;55.30;;;;;;4994647;28;20037;-75
2022/08/20 09:13:30;;;;;;;11.27;2.90;;;23.90;53.10;;;;;;4989969;28;20037;-72
2022/08/20 09:15:56;;;;;;;9.65;2.72;;;23.30;53.40;;;;;;5004636;28;20108;-72
2022/08/20 09:18:22;;;;;;;8.73;2.45;;;22.80;55.80;;;;;;4999612;28;20541;-72
2022/08/20 09:20:48;;;;;;;7.63;2.47;;;22.70;55.90;;;;;;4996864;28;20101;-74
2022/08/20 09:23:13;;;;;;;7.80;2.40;;;22.90;54.70;;;;;;4988256;28;20030;-73
2022/08/20 09:25:39;;;;;;;9.68;2.10;;;23.00;52.90;;;;;;4995086;28;20130;-72
2022/08/20 09:28:04;;;;;;;8.40;2.25;;;23.20;51.40;;;;;;4993410;28;20333;-73
2022/08/20 09:30:30;;;;;;;6.95;2.40;;;23.00;50.90;;;;;;4991751;28;20500;-73
2022/08/20 09:32:59;;;;;;;7.03;1.70;;;23.10;51.50;;;;;;4992846;28;20109;-73
2022/08/20 09:35:25;;;;;;;8.10;2.28;;;23.50;50.00;;;;;;4988235;28;20022;-73
2022/08/20 09:37:51;;;;;;;8.10;2.00;;;24.10;49.40;;;;;;4995123;28;20057;-73
2022/08/20 09:40:18;;;;;;;6.82;2.10;;;24.50;48.20;;;;;;4988564;28;20371;-73
2022/08/20 09:42:44;;;;;;;9.23;2.45;;;24.10;47.20;;;;;;4997170;28;20061;-73
2022/08/20 09:45:11;;;;;;;8.45;2.33;;;23.50;49.00;;;;;;4996343;28;20076;-73
2022/08/20 09:47:37;;;;;;;12.80;2.13;;;23.60;49.10;;;;;;4991797;28;20112;-74
2022/08/20 09:50:03;;;;;;;6.22;2.03;;;23.80;48.30;;;;;;4997004;28;20502;-75
2022/08/20 09:52:36;;;;;;;9.20;2.10;;;23.80;48.30;;;;;;4995234;28;20065;-73
2022/08/20 09:55:12;;;;;;;5.35;2.10;;;24.30;47.60;;;;;;4992732;28;20032;-74
2022/08/20 09:57:38;;;;;;;8.98;1.80;;;24.60;48.00;;;;;;5026216;28;20084;-75
2022/08/20 10:00:07;;;;;;;8.25;2.13;;;24.40;46.80;;;;;;4992579;28;20386;-74
2022/08/20 10:02:33;;;;;;;7.03;1.80;;;24.10;46.50;;;;;;4989029;28;20109;-73
2022/08/20 10:04:59;;;;;;;6.18;2.17;;;24.10;46.60;;;;;;4998116;28;20125;-75
2022/08/20 10:07:25;;;;;;;6.85;2.00;;;23.60;48.20;;;;;;4991149;28;20113;-73
2022/08/20 10:09:50;;;;;;;6.97;2.20;;;23.20;49.90;;;;;;4996390;28;20046;-73
2022/08/20 10:12:16;;;;;;;8.65;2.45;;;23.20;50.50;;;;;;4993201;28;20069;-74
2022/08/20 10:14:41;;;;;;;8.57;2.38;;;23.60;49.90;;;;;;4994488;28;20031;-73
2022/08/20 10:17:07;;;;;;;7.82;2.10;;;24.10;49.40;;;;;;4991833;28;20037;-75
2022/08/20 10:19:33;;;;;;;6.35;2.08;;;24.40;47.70;;;;;;4997235;28;20030;-73
2022/08/20 10:21:59;;;;;;;7.30;2.05;;;24.40;47.80;;;;;;4986838;28;20053;-73
2022/08/20 10:24:25;;;;;;;6.75;2.53;;;24.00;48.40;;;;;;4996375;28;20045;-73
2022/08/20 10:26:55;;;;;;;6.82;1.92;;;23.50;49.40;;;;;;4988123;28;20045;-73
2022/08/20 10:29:20;;;;;;;6.50;1.83;;;23.10;50.30;;;;;;4990961;28;20030;-73
2022/08/20 10:31:46;;;;;;;7.60;2.08;;;22.70;50.60;;;;;;4993842;28;20088;-73
2022/08/20 10:34:12;;;;;;;10.55;2.25;;;22.60;52.00;;;;;;4994167;28;20034;-73
2022/08/20 10:36:40;;;;;;;7.13;1.95;;;22.60;51.50;;;;;;4989644;28;20109;-74
2022/08/20 10:39:05;;;;;;;7.50;1.98;;;22.50;52.30;;;;;;4985248;28;20030;-74
2022/08/20 10:41:31;;;;;;;7.38;2.30;;;22.90;50.40;;;;;;5005980;28;20081;-74
2022/08/20 10:43:57;;;;;;;8.65;2.35;;;22.90;51.10;;;;;;4993729;28;20030;-73
2022/08/20 10:46:22;;;;;;;7.90;2.33;;;23.20;50.30;;;;;;4997694;28;20026;-73
2022/08/20 10:48:48;;;;;;;10.15;2.40;;;23.40;49.90;;;;;;4989099;28;20034;-74
2022/08/20 10:51:13;;;;;;;6.47;2.50;;;23.30;50.50;;;;;;4989243;28;20022;-74
2022/08/20 10:53:39;;;;;;;6.13;1.95;;;23.00;48.60;;;;;;4995774;28;20057;-74
2022/08/20 10:56:05;;;;;;;7.35;2.20;;;22.80;49.50;;;;;;4987667;28;20081;-74
2022/08/20 10:58:31;;;;;;;6.70;2.22;;;22.50;49.40;;;;;;4994682;28;20032;-75
2022/08/20 11:00:57;;;;;;;8.77;2.78;;;22.60;49.20;;;;;;4995938;28;20212;-73
2022/08/20 11:03:22;;;;;;;9.77;2.10;;;23.10;49.90;;;;;;4984156;28;20101;-73
2022/08/20 11:05:48;;;;;;;8.40;2.70;;;23.80;46.80;;;;;;4996142;28;20141;-74
2022/08/20 11:08:14;;;;;;;10.80;2.17;;;24.30;45.60;;;;;;4998811;28;20030;-73
2022/08/20 11:10:41;;;;;;;8.52;2.78;;;24.60;45.60;;;;;;4996876;28;20280;-73
2022/08/20 11:13:07;;;;;;;9.48;2.47;;;24.10;48.40;;;;;;4989746;28;20530;-73
2022/08/20 11:15:35;;;;;;;7.82;2.40;;;23.50;50.60;;;;;;5004448;28;20033;-73
2022/08/20 11:18:02;;;;;;;7.57;2.20;;;23.50;51.20;;;;;;4991301;28;20093;-73
2022/08/20 11:20:30;;;;;;;5.85;2.20;;;23.50;49.70;;;;;;4991429;28;20470;-73
2022/08/20 11:22:55;;;;;;;7.95;2.20;;;23.70;49.70;;;;;;5026069;28;20081;-73
2022/08/20 11:25:21;;;;;;;8.20;2.58;;;23.80;49.10;;;;;;4991933;28;20426;-73
2022/08/20 11:27:49;;;;;;;7.55;2.10;;;24.10;48.90;;;;;;4996589;28;20034;-74
2022/08/20 11:30:19;;;;;;;7.00;2.28;;;24.50;48.30;;;;;;4999879;28;20144;-74
2022/08/20 11:32:45;;;;;;;5.97;2.40;;;25.00;47.00;;;;;;4996116;28;20026;-75
2022/08/20 11:35:12;;;;;;;6.75;2.22;;;25.40;45.30;;;;;;4994422;28;20378;-74
2022/08/20 11:37:39;;;;;;;9.30;3.38;;;25.60;43.90;;;;;;5002791;28;20499;-74
2022/08/20 11:40:07;;;;;;;8.80;2.60;;;25.30;46.40;;;;;;4988467;28;20042;-74
2022/08/20 11:42:33;;;;;;;9.65;2.58;;;24.60;47.80;;;;;;5002929;28;20046;-75
2022/08/20 11:44:59;;;;;;;6.55;2.42;;;24.40;47.50;;;;;;4992785;28;20391;-73
2022/08/20 11:47:27;;;;;;;11.85;2.92;;;24.10;48.30;;;;;;4991261;28;20455;-74
2022/08/20 11:50:03;;;;;;;9.15;2.42;;;24.20;47.30;;;;;;4991723;28;20068;-74
2022/08/20 11:52:29;;;;;;;9.02;2.33;;;24.10;48.50;;;;;;4996156;28;20121;-74
2022/08/20 11:54:55;;;;;;;8.73;2.28;;;24.30;48.60;;;;;;4999195;28;20117;-74
2022/08/20 11:57:27;;;;;;;7.85;2.45;;;24.40;46.80;;;;;;4993992;28;20425;-74
2022/08/20 11:59:54;;;;;;;8.15;2.15;;;24.40;46.50;;;;;;4993933;28;20046;-74
2022/08/20 12:02:20;;;;;;;8.70;2.60;;;24.30;47.20;;;;;;4991487;28;20050;-74
2022/08/20 12:04:46;;;;;;;7.35;2.15;;;24.00;48.10;;;;;;4990469;28;20054;-74
2022/08/20 12:07:15;;;;;;;7.47;2.03;;;24.10;47.80;;;;;;4995045;28;20034;-74
2022/08/20 12:09:41;;;;;;;7.80;2.28;;;24.60;46.40;;;;;;4996048;28;20022;-74
2022/08/20 12:12:07;;;;;;;8.90;1.92;;;24.80;45.80;;;;;;5002558;28;20498;-74
2022/08/20 12:14:33;;;;;;;7.47;1.80;;;25.20;46.30;;;;;;4996657;28;20042;-74
2022/08/20 12:17:20;;;;;;;5.18;1.60;;;25.10;44.60;;;;;;4993357;28;20486;-75
2022/08/20 12:19:46;;;;;;;8.50;2.10;;;25.40;43.70;;;;;;4996703;28;20178;-74
2022/08/20 12:22:12;;;;;;;6.68;2.30;;;25.80;42.40;;;;;;4989568;28;20032;-74
2022/08/20 12:24:37;;;;;;;8.23;2.10;;;25.80;43.30;;;;;;5005271;28;20038;-74
2022/08/20 12:27:16;;;;;;;8.68;1.92;;;26.00;41.80;;;;;;4996724;28;20161;-74
2022/08/20 12:29:44;;;;;;;6.90;2.20;;;25.80;42.60;;;;;;4987751;28;20046;-74
2022/08/20 12:32:10;;;;;;;10.13;2.00;;;25.00;44.50;;;;;;4991508;28;20030;-74
2022/08/20 12:34:38;;;;;;;5.75;2.20;;;24.80;46.20;;;;;;4997028;28;20042;-76
2022/08/20 12:37:07;;;;;;;5.30;2.00;;;24.80;47.00;;;;;;5003370;28;20220;-75
2022/08/20 12:39:34;;;;;;;6.15;2.20;;;24.90;46.50;;;;;;4991842;28;20041;-74
2022/08/20 12:42:03;;;;;;;7.10;1.90;;;24.90;45.90;;;;;;4996349;28;20042;-74
2022/08/20 12:44:30;;;;;;;10.95;2.40;;;25.10;45.50;;;;;;5005274;28;20042;-74
2022/08/20 12:47:26;;;;;;;6.65;2.17;;;25.40;44.90;;;;;;5003556;28;20038;-74